<?xml version="1.0" encoding="UTF-8" standalone="no" ?>
<gpx xmlns="http://www.topografix.com/GPX/1/1" xmlns:xsi="http://www.w3.org/2001/XMLSchema-instance" xsi:schemaLocation="http://www.topografix.com/GPX/1/1 http://www.topografix.com/GPX/1/1/gpx.xsd" version="1.1" creator="VisuGPX - https://www.visugpx.com">
  <metadata>
    <name>Monts d'Ardèche - Jour 2- De Saint-Andéol-de-Vals à Vals-les-Bains</name>
  </metadata>
  <trk>
    <name><![CDATA[Monts d'Ardèche - Jour 2- De Saint-Andéol-de-Vals à Vals-les-Bains]]></name>
    <trkseg>
      <trkpt lat="44.69715" lon="4.39575">
        <ele>427.169676</ele>
        <time>2022-04-05T08:18:39.722Z</time>
      </trkpt>
      <trkpt lat="44.69719" lon="4.39595">
        <ele>427.169676</ele>
        <time>2022-04-05T08:18:56.796Z</time>
      </trkpt>
      <trkpt lat="44.69704" lon="4.3962">
        <ele>427.169676</ele>
        <time>2022-04-05T08:19:23.886Z</time>
      </trkpt>
      <trkpt lat="44.69675" lon="4.39627">
        <ele>427.169676</ele>
        <time>2022-04-05T08:19:58.471Z</time>
      </trkpt>
      <trkpt lat="44.69655" lon="4.39639">
        <ele>427.169676</ele>
        <time>2022-04-05T08:20:22.694Z</time>
      </trkpt>
      <trkpt lat="44.69634" lon="4.39661">
        <ele>427.644354</ele>
        <time>2022-04-05T08:20:51.816Z</time>
      </trkpt>
      <trkpt lat="44.69617" lon="4.39667">
        <ele>427.978207</ele>
        <time>2022-04-05T08:21:11.790Z</time>
      </trkpt>
      <trkpt lat="44.69577" lon="4.39662">
        <ele>428.7178</ele>
        <time>2022-04-05T08:21:56.587Z</time>
      </trkpt>
      <trkpt lat="44.69563" lon="4.39649">
        <ele>429.041388</ele>
        <time>2022-04-05T08:22:14.960Z</time>
      </trkpt>
      <trkpt lat="44.69535" lon="4.39643">
        <ele>429.555066</ele>
        <time>2022-04-05T08:22:43.278Z</time>
      </trkpt>
      <trkpt lat="44.69509" lon="4.39606">
        <ele>430.250099</ele>
        <time>2022-04-05T08:23:21.692Z</time>
      </trkpt>
      <trkpt lat="44.69494" lon="4.39602">
        <ele>430.582055</ele>
        <time>2022-04-05T08:23:37.478Z</time>
      </trkpt>
      <trkpt lat="44.69471" lon="4.39615">
        <ele>432.124581</ele>
        <time>2022-04-05T08:24:03.307Z</time>
      </trkpt>
      <trkpt lat="44.69479" lon="4.39632">
        <ele>433.019862</ele>
        <time>2022-04-05T08:24:19.034Z</time>
      </trkpt>
      <trkpt lat="44.69474" lon="4.39655">
        <ele>434.091842</ele>
        <time>2022-04-05T08:24:38.959Z</time>
      </trkpt>
      <trkpt lat="44.69467" lon="4.39666">
        <ele>434.752257</ele>
        <time>2022-04-05T08:24:51.392Z</time>
      </trkpt>
      <trkpt lat="44.69468" lon="4.39705">
        <ele>436.541799</ele>
        <time>2022-04-05T08:25:26.320Z</time>
      </trkpt>
      <trkpt lat="44.69455" lon="4.39727">
        <ele>437.790535</ele>
        <time>2022-04-05T08:25:51.333Z</time>
      </trkpt>
      <trkpt lat="44.69455" lon="4.39746">
        <ele>438.64534</ele>
        <time>2022-04-05T08:26:09.252Z</time>
      </trkpt>
      <trkpt lat="44.69501" lon="4.39832">
        <ele>444.713466</ele>
        <time>2022-04-05T08:27:51.592Z</time>
      </trkpt>
      <trkpt lat="44.69511" lon="4.39836">
        <ele>445.891343</ele>
        <time>2022-04-05T08:28:05.503Z</time>
      </trkpt>
      <trkpt lat="44.69537" lon="4.39872">
        <ele>449.925178</ele>
        <time>2022-04-05T08:28:55.246Z</time>
      </trkpt>
      <trkpt lat="44.69542" lon="4.39894">
        <ele>451.705556</ele>
        <time>2022-04-05T08:29:19.101Z</time>
      </trkpt>
      <trkpt lat="44.69458" lon="4.39923">
        <ele>461.336249</ele>
        <time>2022-04-05T08:31:22.643Z</time>
      </trkpt>
      <trkpt lat="44.69402" lon="4.40022">
        <ele>468.467114</ele>
        <time>2022-04-05T08:33:23.216Z</time>
      </trkpt>
      <trkpt lat="44.69327" lon="4.40118">
        <ele>475.706054</ele>
        <time>2022-04-05T08:35:27.527Z</time>
      </trkpt>
      <trkpt lat="44.69289" lon="4.40149">
        <ele>474.520312</ele>
        <time>2022-04-05T08:36:13.751Z</time>
      </trkpt>
      <trkpt lat="44.69272" lon="4.40157">
        <ele>474.03863</ele>
        <time>2022-04-05T08:36:32.442Z</time>
      </trkpt>
      <trkpt lat="44.69232" lon="4.40188">
        <ele>472.809547</ele>
        <time>2022-04-05T08:37:21.317Z</time>
      </trkpt>
      <trkpt lat="44.69228" lon="4.40173">
        <ele>472.499948</ele>
        <time>2022-04-05T08:37:34.000Z</time>
      </trkpt>
      <trkpt lat="44.69221" lon="4.40171">
        <ele>472.290417</ele>
        <time>2022-04-05T08:37:42.748Z</time>
      </trkpt>
      <trkpt lat="44.69211" lon="4.40176">
        <ele>472.013663</ele>
        <time>2022-04-05T08:37:54.224Z</time>
      </trkpt>
      <trkpt lat="44.69202" lon="4.4018">
        <ele>471.76696</ele>
        <time>2022-04-05T08:38:04.509Z</time>
      </trkpt>
      <trkpt lat="44.6918" lon="4.40173">
        <ele>471.131482</ele>
        <time>2022-04-05T08:38:31.915Z</time>
      </trkpt>
      <trkpt lat="44.69169" lon="4.40166">
        <ele>470.529438</ele>
        <time>2022-04-05T08:38:45.231Z</time>
      </trkpt>
      <trkpt lat="44.69156" lon="4.40184">
        <ele>469.280851</ele>
        <time>2022-04-05T08:39:06.838Z</time>
      </trkpt>
      <trkpt lat="44.69134" lon="4.40196">
        <ele>467.644878</ele>
        <time>2022-04-05T08:39:34.873Z</time>
      </trkpt>
      <trkpt lat="44.69132" lon="4.40194">
        <ele>467.496257</ele>
        <time>2022-04-05T08:39:37.302Z</time>
      </trkpt>
      <trkpt lat="44.69126" lon="4.40186">
        <ele>466.919867</ele>
        <time>2022-04-05T08:39:47.057Z</time>
      </trkpt>
      <trkpt lat="44.69076" lon="4.40118">
        <ele>462.211079</ele>
        <time>2022-04-05T08:41:06.219Z</time>
      </trkpt>
      <trkpt lat="44.69033" lon="4.40119">
        <ele>459.303705</ele>
        <time>2022-04-05T08:41:54.671Z</time>
      </trkpt>
      <trkpt lat="44.68965" lon="4.40129">
        <ele>456.056779</ele>
        <time>2022-04-05T08:43:09.274Z</time>
      </trkpt>
      <trkpt lat="44.68944" lon="4.4014">
        <ele>455.037189</ele>
        <time>2022-04-05T08:43:33.641Z</time>
      </trkpt>
      <trkpt lat="44.68937" lon="4.40134">
        <ele>454.67696</ele>
        <time>2022-04-05T08:43:42.659Z</time>
      </trkpt>
      <trkpt lat="44.68888" lon="4.40159">
        <ele>452.330863</ele>
        <time>2022-04-05T08:44:39.733Z</time>
      </trkpt>
      <trkpt lat="44.68864" lon="4.40179">
        <ele>451.097018</ele>
        <time>2022-04-05T08:45:09.496Z</time>
      </trkpt>
      <trkpt lat="44.68805" lon="4.40171">
        <ele>448.018424</ele>
        <time>2022-04-05T08:46:14.788Z</time>
      </trkpt>
      <trkpt lat="44.68759" lon="4.40178">
        <ele>445.56598</ele>
        <time>2022-04-05T08:47:06.423Z</time>
      </trkpt>
      <trkpt lat="44.68704" lon="4.40175">
        <ele>442.656961</ele>
        <time>2022-04-05T08:48:07.172Z</time>
      </trkpt>
      <trkpt lat="44.68642" lon="4.40194">
        <ele>438.52276</ele>
        <time>2022-04-05T08:49:18.751Z</time>
      </trkpt>
      <trkpt lat="44.68583" lon="4.40194">
        <ele>434.16692</ele>
        <time>2022-04-05T08:50:26.692Z</time>
      </trkpt>
      <trkpt lat="44.68518" lon="4.4021">
        <ele>429.338891</ele>
        <time>2022-04-05T08:51:41.828Z</time>
      </trkpt>
      <trkpt lat="44.68518" lon="4.4021">
        <ele>429.338891</ele>
        <time>2022-04-05T08:51:42.190Z</time>
      </trkpt>
      <trkpt lat="44.68518" lon="4.4021">
        <ele>429.338891</ele>
        <time>2022-04-05T08:51:42.190Z</time>
      </trkpt>
      <trkpt lat="44.68497" lon="4.40214">
        <ele>427.678171</ele>
        <time>2022-04-05T08:52:03.847Z</time>
      </trkpt>
      <trkpt lat="44.68465" lon="4.40217">
        <ele>424.686146</ele>
        <time>2022-04-05T08:52:35.768Z</time>
      </trkpt>
      <trkpt lat="44.68421" lon="4.40195">
        <ele>420.27581</ele>
        <time>2022-04-05T08:53:22.819Z</time>
      </trkpt>
      <trkpt lat="44.68389" lon="4.40178">
        <ele>417.027762</ele>
        <time>2022-04-05T08:53:57.540Z</time>
      </trkpt>
      <trkpt lat="44.68351" lon="4.40159">
        <ele>413.266861</ele>
        <time>2022-04-05T08:54:37.753Z</time>
      </trkpt>
      <trkpt lat="44.683" lon="4.40168">
        <ele>409.960807</ele>
        <time>2022-04-05T08:55:30.160Z</time>
      </trkpt>
      <trkpt lat="44.68273" lon="4.40167">
        <ele>408.942034</ele>
        <time>2022-04-05T08:55:56.716Z</time>
      </trkpt>
      <trkpt lat="44.68261" lon="4.40166">
        <ele>408.464112</ele>
        <time>2022-04-05T08:56:09.164Z</time>
      </trkpt>
      <trkpt lat="44.68261" lon="4.40166">
        <ele>408.464112</ele>
        <time>2022-04-05T08:56:09.535Z</time>
      </trkpt>
      <trkpt lat="44.68281" lon="4.40194">
        <ele>407.363599</ele>
        <time>2022-04-05T08:56:40.926Z</time>
      </trkpt>
      <trkpt lat="44.683" lon="4.40211">
        <ele>406.508959</ele>
        <time>2022-04-05T08:57:03.884Z</time>
      </trkpt>
      <trkpt lat="44.68301" lon="4.40228">
        <ele>406.038564</ele>
        <time>2022-04-05T08:57:17.409Z</time>
      </trkpt>
      <trkpt lat="44.68291" lon="4.40227">
        <ele>405.638238</ele>
        <time>2022-04-05T08:57:28.948Z</time>
      </trkpt>
      <trkpt lat="44.68254" lon="4.40191">
        <ele>404.20631</ele>
        <time>2022-04-05T08:58:15.932Z</time>
      </trkpt>
      <trkpt lat="44.68231" lon="4.40184">
        <ele>404.378299</ele>
        <time>2022-04-05T08:58:40.192Z</time>
      </trkpt>
      <trkpt lat="44.68166" lon="4.40095">
        <ele>405.045071</ele>
        <time>2022-04-05T09:00:19.317Z</time>
      </trkpt>
      <trkpt lat="44.68135" lon="4.40086">
        <ele>405.275771</ele>
        <time>2022-04-05T09:00:52.144Z</time>
      </trkpt>
      <trkpt lat="44.68097" lon="4.40113">
        <ele>404.743474</ele>
        <time>2022-04-05T09:01:34.994Z</time>
      </trkpt>
      <trkpt lat="44.6809" lon="4.40104">
        <ele>404.250642</ele>
        <time>2022-04-05T09:01:45.573Z</time>
      </trkpt>
      <trkpt lat="44.68088" lon="4.40045">
        <ele>402.169245</ele>
        <time>2022-04-05T09:02:30.800Z</time>
      </trkpt>
      <trkpt lat="44.68057" lon="4.39981">
        <ele>399.433884</ele>
        <time>2022-04-05T09:03:31.856Z</time>
      </trkpt>
      <trkpt lat="44.68054" lon="4.39953">
        <ele>398.450342</ele>
        <time>2022-04-05T09:03:53.746Z</time>
      </trkpt>
      <trkpt lat="44.68065" lon="4.39928">
        <ele>397.407353</ele>
        <time>2022-04-05T09:04:18.806Z</time>
      </trkpt>
      <trkpt lat="44.68085" lon="4.39917">
        <ele>396.035007</ele>
        <time>2022-04-05T09:04:43.469Z</time>
      </trkpt>
      <trkpt lat="44.68084" lon="4.39911">
        <ele>395.495911</ele>
        <time>2022-04-05T09:04:49.624Z</time>
      </trkpt>
      <trkpt lat="44.68094" lon="4.39909">
        <ele>394.302582</ele>
        <time>2022-04-05T09:05:02.470Z</time>
      </trkpt>
      <trkpt lat="44.68075" lon="4.39886">
        <ele>391.486463</ele>
        <time>2022-04-05T09:05:32.101Z</time>
      </trkpt>
      <trkpt lat="44.6809" lon="4.39858">
        <ele>388.730663</ele>
        <time>2022-04-05T09:06:01.358Z</time>
      </trkpt>
      <trkpt lat="44.68081" lon="4.39831">
        <ele>386.324762</ele>
        <time>2022-04-05T09:06:28.190Z</time>
      </trkpt>
      <trkpt lat="44.68038" lon="4.39752">
        <ele>378.381616</ele>
        <time>2022-04-05T09:07:55.129Z</time>
      </trkpt>
      <trkpt lat="44.68014" lon="4.39676">
        <ele>371.485566</ele>
        <time>2022-04-05T09:09:08.978Z</time>
      </trkpt>
      <trkpt lat="44.67946" lon="4.39585">
        <ele>360.386479</ele>
        <time>2022-04-05T09:11:06.291Z</time>
      </trkpt>
      <trkpt lat="44.67865" lon="4.39505">
        <ele>352.408002</ele>
        <time>2022-04-05T09:13:04.205Z</time>
      </trkpt>
      <trkpt lat="44.67824" lon="4.39483">
        <ele>350.27328</ele>
        <time>2022-04-05T09:13:53.446Z</time>
      </trkpt>
      <trkpt lat="44.67838" lon="4.39428">
        <ele>348.260242</ele>
        <time>2022-04-05T09:14:36.962Z</time>
      </trkpt>
      <trkpt lat="44.67848" lon="4.39423">
        <ele>347.70855</ele>
        <time>2022-04-05T09:14:48.641Z</time>
      </trkpt>
      <trkpt lat="44.67852" lon="4.39413">
        <ele>347.334739</ele>
        <time>2022-04-05T09:14:56.444Z</time>
      </trkpt>
      <trkpt lat="44.67843" lon="4.39396">
        <ele>346.583341</ele>
        <time>2022-04-05T09:15:11.947Z</time>
      </trkpt>
      <trkpt lat="44.67883" lon="4.39378">
        <ele>347.715363</ele>
        <time>2022-04-05T09:15:56.158Z</time>
      </trkpt>
      <trkpt lat="44.67869" lon="4.39367">
        <ele>348.431981</ele>
        <time>2022-04-05T09:16:14.338Z</time>
      </trkpt>
      <trkpt lat="44.6783" lon="4.39357">
        <ele>350.165684</ele>
        <time>2022-04-05T09:16:59.615Z</time>
      </trkpt>
      <trkpt lat="44.67827" lon="4.39344">
        <ele>350.606153</ele>
        <time>2022-04-05T09:17:11.356Z</time>
      </trkpt>
      <trkpt lat="44.67816" lon="4.39336">
        <ele>351.160346</ele>
        <time>2022-04-05T09:17:25.998Z</time>
      </trkpt>
      <trkpt lat="44.67777" lon="4.39332">
        <ele>352.892152</ele>
        <time>2022-04-05T09:18:13.716Z</time>
      </trkpt>
      <trkpt lat="44.6771" lon="4.39278">
        <ele>356.475286</ele>
        <time>2022-04-05T09:19:50.751Z</time>
      </trkpt>
      <trkpt lat="44.67671" lon="4.39302">
        <ele>358.501714</ele>
        <time>2022-04-05T09:20:40.183Z</time>
      </trkpt>
      <trkpt lat="44.67652" lon="4.39304">
        <ele>359.424241</ele>
        <time>2022-04-05T09:21:01.173Z</time>
      </trkpt>
      <trkpt lat="44.67636" lon="4.39295">
        <ele>360.235379</ele>
        <time>2022-04-05T09:21:21.383Z</time>
      </trkpt>
      <trkpt lat="44.67551" lon="4.39288">
        <ele>364.244098</ele>
        <time>2022-04-05T09:22:55.870Z</time>
      </trkpt>
      <trkpt lat="44.67519" lon="4.3928">
        <ele>365.736999</ele>
        <time>2022-04-05T09:23:31.207Z</time>
      </trkpt>
      <trkpt lat="44.67516" lon="4.39274">
        <ele>365.983206</ele>
        <time>2022-04-05T09:23:36.763Z</time>
      </trkpt>
      <trkpt lat="44.67524" lon="4.39254">
        <ele>366.756398</ele>
        <time>2022-04-05T09:23:57.032Z</time>
      </trkpt>
      <trkpt lat="44.67533" lon="4.39246">
        <ele>367.228165</ele>
        <time>2022-04-05T09:24:09.173Z</time>
      </trkpt>
      <trkpt lat="44.67564" lon="4.39232">
        <ele>368.726</ele>
        <time>2022-04-05T09:24:46.194Z</time>
      </trkpt>
      <trkpt lat="44.67602" lon="4.39256">
        <ele>370.640738</ele>
        <time>2022-04-05T09:25:35.310Z</time>
      </trkpt>
      <trkpt lat="44.67644" lon="4.39247">
        <ele>374.311918</ele>
        <time>2022-04-05T09:26:28.565Z</time>
      </trkpt>
      <trkpt lat="44.67666" lon="4.39225">
        <ele>376.911462</ele>
        <time>2022-04-05T09:27:04.445Z</time>
      </trkpt>
      <trkpt lat="44.67681" lon="4.39186">
        <ele>379.923446</ele>
        <time>2022-04-05T09:27:46.119Z</time>
      </trkpt>
      <trkpt lat="44.67689" lon="4.3918">
        <ele>380.755233</ele>
        <time>2022-04-05T09:27:57.304Z</time>
      </trkpt>
      <trkpt lat="44.6772" lon="4.39172">
        <ele>383.801252</ele>
        <time>2022-04-05T09:28:40.523Z</time>
      </trkpt>
      <trkpt lat="44.67768" lon="4.39142">
        <ele>389.018654</ele>
        <time>2022-04-05T09:29:54.868Z</time>
      </trkpt>
      <trkpt lat="44.67809" lon="4.39133">
        <ele>393.624769</ele>
        <time>2022-04-05T09:30:53.381Z</time>
      </trkpt>
      <trkpt lat="44.67829" lon="4.39121">
        <ele>396.036526</ele>
        <time>2022-04-05T09:31:22.699Z</time>
      </trkpt>
      <trkpt lat="44.67877" lon="4.39048">
        <ele>403.98806</ele>
        <time>2022-04-05T09:33:10.304Z</time>
      </trkpt>
      <trkpt lat="44.6788" lon="4.39022">
        <ele>406.085679</ele>
        <time>2022-04-05T09:33:34.174Z</time>
      </trkpt>
      <trkpt lat="44.67875" lon="4.38911">
        <ele>411.735477</ele>
        <time>2022-04-05T09:35:14.510Z</time>
      </trkpt>
      <trkpt lat="44.67877" lon="4.38896">
        <ele>412.37517</ele>
        <time>2022-04-05T09:35:31.299Z</time>
      </trkpt>
      <trkpt lat="44.67875" lon="4.38882">
        <ele>412.935699</ele>
        <time>2022-04-05T09:35:42.527Z</time>
      </trkpt>
      <trkpt lat="44.67886" lon="4.38741">
        <ele>418.603273</ele>
        <time>2022-04-05T09:37:38.750Z</time>
      </trkpt>
      <trkpt lat="44.67897" lon="4.38722">
        <ele>418.604896</ele>
        <time>2022-04-05T09:37:56.529Z</time>
      </trkpt>
      <trkpt lat="44.67976" lon="4.38644">
        <ele>418.29918</ele>
        <time>2022-04-05T09:39:35.309Z</time>
      </trkpt>
      <trkpt lat="44.67986" lon="4.38616">
        <ele>418.228834</ele>
        <time>2022-04-05T09:39:58.470Z</time>
      </trkpt>
      <trkpt lat="44.67977" lon="4.38587">
        <ele>418.158606</ele>
        <time>2022-04-05T09:40:20.626Z</time>
      </trkpt>
      <trkpt lat="44.67965" lon="4.38567">
        <ele>418.099208</ele>
        <time>2022-04-05T09:40:40.354Z</time>
      </trkpt>
      <trkpt lat="44.67947" lon="4.38555">
        <ele>418.101971</ele>
        <time>2022-04-05T09:41:00.244Z</time>
      </trkpt>
      <trkpt lat="44.67906" lon="4.38548">
        <ele>418.141147</ele>
        <time>2022-04-05T09:41:42.509Z</time>
      </trkpt>
      <trkpt lat="44.67877" lon="4.38529">
        <ele>418.171174</ele>
        <time>2022-04-05T09:42:14.431Z</time>
      </trkpt>
      <trkpt lat="44.67789" lon="4.38541">
        <ele>418.25489</ele>
        <time>2022-04-05T09:43:45.334Z</time>
      </trkpt>
      <trkpt lat="44.67741" lon="4.38512">
        <ele>418.268558</ele>
        <time>2022-04-05T09:44:39.218Z</time>
      </trkpt>
      <trkpt lat="44.67733" lon="4.38487">
        <ele>418.273136</ele>
        <time>2022-04-05T09:44:59.595Z</time>
      </trkpt>
      <trkpt lat="44.6774" lon="4.38471">
        <ele>418.27631</ele>
        <time>2022-04-05T09:45:13.301Z</time>
      </trkpt>
      <trkpt lat="44.6776" lon="4.38465">
        <ele>418.281165</ele>
        <time>2022-04-05T09:45:34.850Z</time>
      </trkpt>
      <trkpt lat="44.67792" lon="4.38434">
        <ele>418.290185</ele>
        <time>2022-04-05T09:46:13.458Z</time>
      </trkpt>
      <trkpt lat="44.67807" lon="4.38428">
        <ele>418.293809</ele>
        <time>2022-04-05T09:46:29.455Z</time>
      </trkpt>
      <trkpt lat="44.67812" lon="4.38411">
        <ele>418.296921</ele>
        <time>2022-04-05T09:46:42.968Z</time>
      </trkpt>
      <trkpt lat="44.67806" lon="4.38394">
        <ele>418.144373</ele>
        <time>2022-04-05T09:46:57.168Z</time>
      </trkpt>
      <trkpt lat="44.67775" lon="4.3839">
        <ele>417.183613</ele>
        <time>2022-04-05T09:47:30.110Z</time>
      </trkpt>
      <trkpt lat="44.67739" lon="4.38373">
        <ele>416.020022</ele>
        <time>2022-04-05T09:48:10.522Z</time>
      </trkpt>
      <trkpt lat="44.67683" lon="4.38298">
        <ele>413.63704</ele>
        <time>2022-04-05T09:49:33.603Z</time>
      </trkpt>
      <trkpt lat="44.67678" lon="4.38284">
        <ele>413.295512</ele>
        <time>2022-04-05T09:49:45.384Z</time>
      </trkpt>
      <trkpt lat="44.67687" lon="4.38251">
        <ele>412.397447</ele>
        <time>2022-04-05T09:50:13.463Z</time>
      </trkpt>
      <trkpt lat="44.67733" lon="4.38161">
        <ele>408.842754</ele>
        <time>2022-04-05T09:51:39.478Z</time>
      </trkpt>
      <trkpt lat="44.67734" lon="4.38153">
        <ele>408.569179</ele>
        <time>2022-04-05T09:51:45.983Z</time>
      </trkpt>
      <trkpt lat="44.6773" lon="4.38137">
        <ele>408.024506</ele>
        <time>2022-04-05T09:52:00.254Z</time>
      </trkpt>
      <trkpt lat="44.67716" lon="4.38129">
        <ele>407.370738</ele>
        <time>2022-04-05T09:52:15.400Z</time>
      </trkpt>
      <trkpt lat="44.67651" lon="4.38171">
        <ele>404.327582</ele>
        <time>2022-04-05T09:53:33.124Z</time>
      </trkpt>
      <trkpt lat="44.67619" lon="4.38206">
        <ele>403.159789</ele>
        <time>2022-04-05T09:54:17.064Z</time>
      </trkpt>
      <trkpt lat="44.67595" lon="4.38219">
        <ele>402.415</ele>
        <time>2022-04-05T09:54:46.156Z</time>
      </trkpt>
      <trkpt lat="44.67538" lon="4.38226">
        <ele>400.746636</ele>
        <time>2022-04-05T09:55:47.317Z</time>
      </trkpt>
      <trkpt lat="44.67524" lon="4.38208">
        <ele>400.191683</ele>
        <time>2022-04-05T09:56:07.164Z</time>
      </trkpt>
      <trkpt lat="44.67523" lon="4.38191">
        <ele>399.822695</ele>
        <time>2022-04-05T09:56:20.255Z</time>
      </trkpt>
      <trkpt lat="44.67537" lon="4.38147">
        <ele>399.687335</ele>
        <time>2022-04-05T09:56:54.068Z</time>
      </trkpt>
      <trkpt lat="44.67563" lon="4.38089">
        <ele>400.231909</ele>
        <time>2022-04-05T09:57:43.924Z</time>
      </trkpt>
      <trkpt lat="44.67571" lon="4.38038">
        <ele>400.640581</ele>
        <time>2022-04-05T09:58:22.756Z</time>
      </trkpt>
      <trkpt lat="44.67564" lon="4.38019">
        <ele>400.809171</ele>
        <time>2022-04-05T09:58:41.162Z</time>
      </trkpt>
      <trkpt lat="44.67516" lon="4.38015">
        <ele>401.332263</ele>
        <time>2022-04-05T09:59:30.814Z</time>
      </trkpt>
      <trkpt lat="44.67483" lon="4.38027">
        <ele>401.569652</ele>
        <time>2022-04-05T10:00:06.643Z</time>
      </trkpt>
      <trkpt lat="44.67478" lon="4.38009">
        <ele>401.642208</ele>
        <time>2022-04-05T10:00:21.046Z</time>
      </trkpt>
      <trkpt lat="44.67496" lon="4.37949">
        <ele>401.891588</ele>
        <time>2022-04-05T10:01:13.615Z</time>
      </trkpt>
      <trkpt lat="44.67491" lon="4.37909">
        <ele>402.044655</ele>
        <time>2022-04-05T10:01:43.067Z</time>
      </trkpt>
      <trkpt lat="44.67477" lon="4.37901">
        <ele>402.124259</ele>
        <time>2022-04-05T10:01:58.851Z</time>
      </trkpt>
      <trkpt lat="44.6745" lon="4.37907">
        <ele>402.273187</ele>
        <time>2022-04-05T10:02:27.328Z</time>
      </trkpt>
      <trkpt lat="44.67441" lon="4.37899">
        <ele>402.328655</ele>
        <time>2022-04-05T10:02:38.080Z</time>
      </trkpt>
      <trkpt lat="44.67411" lon="4.37858">
        <ele>402.169412</ele>
        <time>2022-04-05T10:03:20.489Z</time>
      </trkpt>
      <trkpt lat="44.67383" lon="4.37906">
        <ele>401.81235</ele>
        <time>2022-04-05T10:04:05.183Z</time>
      </trkpt>
      <trkpt lat="44.67372" lon="4.37914">
        <ele>401.714829</ele>
        <time>2022-04-05T10:04:17.534Z</time>
      </trkpt>
      <trkpt lat="44.67344" lon="4.37927">
        <ele>401.473876</ele>
        <time>2022-04-05T10:04:47.830Z</time>
      </trkpt>
      <trkpt lat="44.67288" lon="4.3797">
        <ele>400.957095</ele>
        <time>2022-04-05T10:05:52.632Z</time>
      </trkpt>
      <trkpt lat="44.67276" lon="4.37964">
        <ele>401.114519</ele>
        <time>2022-04-05T10:06:05.868Z</time>
      </trkpt>
      <trkpt lat="44.6723" lon="4.37899">
        <ele>402.146178</ele>
        <time>2022-04-05T10:07:10.709Z</time>
      </trkpt>
      <trkpt lat="44.67188" lon="4.37926">
        <ele>402.887534</ele>
        <time>2022-04-05T10:08:02.147Z</time>
      </trkpt>
      <trkpt lat="44.67172" lon="4.37928">
        <ele>403.13535</ele>
        <time>2022-04-05T10:08:19.292Z</time>
      </trkpt>
      <trkpt lat="44.67165" lon="4.37924">
        <ele>403.266831</ele>
        <time>2022-04-05T10:08:28.728Z</time>
      </trkpt>
      <trkpt lat="44.67121" lon="4.37869">
        <ele>404.475986</ele>
        <time>2022-04-05T10:09:34.657Z</time>
      </trkpt>
      <trkpt lat="44.67077" lon="4.37828">
        <ele>405.833516</ele>
        <time>2022-04-05T10:10:31.849Z</time>
      </trkpt>
      <trkpt lat="44.67029" lon="4.37766">
        <ele>407.567306</ele>
        <time>2022-04-05T10:11:44.229Z</time>
      </trkpt>
      <trkpt lat="44.67007" lon="4.37759">
        <ele>408.147539</ele>
        <time>2022-04-05T10:12:08.089Z</time>
      </trkpt>
      <trkpt lat="44.66994" lon="4.3776">
        <ele>408.494456</ele>
        <time>2022-04-05T10:12:22.274Z</time>
      </trkpt>
      <trkpt lat="44.66979" lon="4.37785">
        <ele>408.651579</ele>
        <time>2022-04-05T10:12:47.273Z</time>
      </trkpt>
      <trkpt lat="44.66955" lon="4.3786">
        <ele>408.969833</ele>
        <time>2022-04-05T10:13:47.027Z</time>
      </trkpt>
      <trkpt lat="44.66942" lon="4.37872">
        <ele>409.056802</ele>
        <time>2022-04-05T10:14:03.168Z</time>
      </trkpt>
      <trkpt lat="44.66926" lon="4.37872">
        <ele>409.142938</ele>
        <time>2022-04-05T10:14:19.233Z</time>
      </trkpt>
      <trkpt lat="44.66902" lon="4.37806">
        <ele>409.426859</ele>
        <time>2022-04-05T10:15:11.920Z</time>
      </trkpt>
      <trkpt lat="44.66881" lon="4.3778">
        <ele>410.104516</ele>
        <time>2022-04-05T10:15:40.865Z</time>
      </trkpt>
      <trkpt lat="44.66852" lon="4.37765">
        <ele>411.481841</ele>
        <time>2022-04-05T10:16:13.380Z</time>
      </trkpt>
      <trkpt lat="44.6682" lon="4.37748">
        <ele>413.02113</ele>
        <time>2022-04-05T10:16:49.486Z</time>
      </trkpt>
      <trkpt lat="44.66808" lon="4.37748">
        <ele>413.585232</ele>
        <time>2022-04-05T10:17:02.362Z</time>
      </trkpt>
      <trkpt lat="44.66768" lon="4.37786">
        <ele>415.767167</ele>
        <time>2022-04-05T10:18:03.082Z</time>
      </trkpt>
      <trkpt lat="44.6675" lon="4.3779">
        <ele>416.582098</ele>
        <time>2022-04-05T10:18:25.463Z</time>
      </trkpt>
      <trkpt lat="44.66743" lon="4.37792">
        <ele>416.879312</ele>
        <time>2022-04-05T10:18:33.119Z</time>
      </trkpt>
      <trkpt lat="44.6672" lon="4.37792">
        <ele>418.396078</ele>
        <time>2022-04-05T10:19:05.530Z</time>
      </trkpt>
      <trkpt lat="44.66717" lon="4.37781">
        <ele>419.249717</ele>
        <time>2022-04-05T10:19:14.932Z</time>
      </trkpt>
      <trkpt lat="44.66676" lon="4.37779">
        <ele>423.681553</ele>
        <time>2022-04-05T10:20:09.266Z</time>
      </trkpt>
      <trkpt lat="44.66669" lon="4.37772">
        <ele>424.593328</ele>
        <time>2022-04-05T10:20:23.951Z</time>
      </trkpt>
      <trkpt lat="44.66631" lon="4.37755">
        <ele>428.828736</ele>
        <time>2022-04-05T10:21:19.275Z</time>
      </trkpt>
      <trkpt lat="44.6662" lon="4.37764">
        <ele>430.157689</ele>
        <time>2022-04-05T10:21:36.089Z</time>
      </trkpt>
      <trkpt lat="44.66607" lon="4.37792">
        <ele>432.722074</ele>
        <time>2022-04-05T10:22:11.850Z</time>
      </trkpt>
      <trkpt lat="44.66595" lon="4.37797">
        <ele>434.122288</ele>
        <time>2022-04-05T10:22:29.672Z</time>
      </trkpt>
      <trkpt lat="44.66561" lon="4.37831">
        <ele>438.104545</ele>
        <time>2022-04-05T10:23:26.318Z</time>
      </trkpt>
      <trkpt lat="44.66537" lon="4.37836">
        <ele>440.059367</ele>
        <time>2022-04-05T10:24:03.167Z</time>
      </trkpt>
      <trkpt lat="44.66511" lon="4.37855">
        <ele>442.336362</ele>
        <time>2022-04-05T10:24:41.236Z</time>
      </trkpt>
      <trkpt lat="44.66489" lon="4.37849">
        <ele>444.170698</ele>
        <time>2022-04-05T10:25:09.576Z</time>
      </trkpt>
      <trkpt lat="44.66465" lon="4.37866">
        <ele>446.2865</ele>
        <time>2022-04-05T10:25:41.812Z</time>
      </trkpt>
      <trkpt lat="44.66425" lon="4.37873">
        <ele>449.506218</ele>
        <time>2022-04-05T10:26:30.263Z</time>
      </trkpt>
      <trkpt lat="44.66385" lon="4.379">
        <ele>452.00687</ele>
        <time>2022-04-05T10:27:23.468Z</time>
      </trkpt>
      <trkpt lat="44.66356" lon="4.37901">
        <ele>453.090803</ele>
        <time>2022-04-05T10:27:57.429Z</time>
      </trkpt>
      <trkpt lat="44.66295" lon="4.37963">
        <ele>455.918982</ele>
        <time>2022-04-05T10:29:21.712Z</time>
      </trkpt>
      <trkpt lat="44.66291" lon="4.3797">
        <ele>456.159445</ele>
        <time>2022-04-05T10:29:28.398Z</time>
      </trkpt>
      <trkpt lat="44.66291" lon="4.37994">
        <ele>456.784126</ele>
        <time>2022-04-05T10:29:47.815Z</time>
      </trkpt>
      <trkpt lat="44.66239" lon="4.38007">
        <ele>458.303451</ele>
        <time>2022-04-05T10:30:43.897Z</time>
      </trkpt>
      <trkpt lat="44.66191" lon="4.38032">
        <ele>459.295446</ele>
        <time>2022-04-05T10:31:39.902Z</time>
      </trkpt>
      <trkpt lat="44.66173" lon="4.38033">
        <ele>459.645676</ele>
        <time>2022-04-05T10:31:58.806Z</time>
      </trkpt>
      <trkpt lat="44.66137" lon="4.38021">
        <ele>460.365735</ele>
        <time>2022-04-05T10:32:38.861Z</time>
      </trkpt>
      <trkpt lat="44.66089" lon="4.38053">
        <ele>461.283484</ele>
        <time>2022-04-05T10:33:34.831Z</time>
      </trkpt>
      <trkpt lat="44.65977" lon="4.38033">
        <ele>460.764103</ele>
        <time>2022-04-05T10:35:31.645Z</time>
      </trkpt>
      <trkpt lat="44.65937" lon="4.38057">
        <ele>460.565058</ele>
        <time>2022-04-05T10:36:16.812Z</time>
      </trkpt>
      <trkpt lat="44.65923" lon="4.3806">
        <ele>460.500046</ele>
        <time>2022-04-05T10:36:31.980Z</time>
      </trkpt>
      <trkpt lat="44.65871" lon="4.38098">
        <ele>457.782565</ele>
        <time>2022-04-05T10:37:35.740Z</time>
      </trkpt>
      <trkpt lat="44.65831" lon="4.38103">
        <ele>455.779075</ele>
        <time>2022-04-05T10:38:19.936Z</time>
      </trkpt>
      <trkpt lat="44.65823" lon="4.38154">
        <ele>453.922795</ele>
        <time>2022-04-05T10:39:01.438Z</time>
      </trkpt>
      <trkpt lat="44.65827" lon="4.3818">
        <ele>452.962268</ele>
        <time>2022-04-05T10:39:22.996Z</time>
      </trkpt>
      <trkpt lat="44.65815" lon="4.38204">
        <ele>451.937008</ele>
        <time>2022-04-05T10:39:46.030Z</time>
      </trkpt>
      <trkpt lat="44.65804" lon="4.38274">
        <ele>449.352439</ele>
        <time>2022-04-05T10:40:43.968Z</time>
      </trkpt>
      <trkpt lat="44.65775" lon="4.38358">
        <ele>446.04184</ele>
        <time>2022-04-05T10:41:57.889Z</time>
      </trkpt>
      <trkpt lat="44.65774" lon="4.384">
        <ele>444.528027</ele>
        <time>2022-04-05T10:42:31.134Z</time>
      </trkpt>
      <trkpt lat="44.65781" lon="4.38496">
        <ele>442.083454</ele>
        <time>2022-04-05T10:43:44.033Z</time>
      </trkpt>
      <trkpt lat="44.65778" lon="4.38543">
        <ele>441.622539</ele>
        <time>2022-04-05T10:44:19.331Z</time>
      </trkpt>
      <trkpt lat="44.65787" lon="4.38559">
        <ele>441.429923</ele>
        <time>2022-04-05T10:44:33.544Z</time>
      </trkpt>
      <trkpt lat="44.65804" lon="4.38564">
        <ele>441.182198</ele>
        <time>2022-04-05T10:44:52.401Z</time>
      </trkpt>
      <trkpt lat="44.65813" lon="4.38496">
        <ele>440.507311</ele>
        <time>2022-04-05T10:45:42.658Z</time>
      </trkpt>
      <trkpt lat="44.65813" lon="4.38496">
        <ele>440.507311</ele>
        <time>2022-04-05T10:45:43.977Z</time>
      </trkpt>
      <trkpt lat="44.65849" lon="4.3843">
        <ele>440.221404</ele>
        <time>2022-04-05T10:46:44.054Z</time>
      </trkpt>
      <trkpt lat="44.65863" lon="4.38384">
        <ele>440.592296</ele>
        <time>2022-04-05T10:47:20.984Z</time>
      </trkpt>
      <trkpt lat="44.65963" lon="4.38297">
        <ele>441.826806</ele>
        <time>2022-04-05T10:49:25.765Z</time>
      </trkpt>
      <trkpt lat="44.65966" lon="4.38289">
        <ele>441.846388</ele>
        <time>2022-04-05T10:49:32.599Z</time>
      </trkpt>
      <trkpt lat="44.65961" lon="4.38257">
        <ele>441.243375</ele>
        <time>2022-04-05T10:49:56.385Z</time>
      </trkpt>
      <trkpt lat="44.65921" lon="4.38203">
        <ele>439.779521</ele>
        <time>2022-04-05T10:50:52.424Z</time>
      </trkpt>
      <trkpt lat="44.65918" lon="4.38179">
        <ele>439.309377</ele>
        <time>2022-04-05T10:51:10.990Z</time>
      </trkpt>
      <trkpt lat="44.65922" lon="4.38167">
        <ele>439.063554</ele>
        <time>2022-04-05T10:51:21.034Z</time>
      </trkpt>
      <trkpt lat="44.65931" lon="4.38159">
        <ele>438.769279</ele>
        <time>2022-04-05T10:51:33.000Z</time>
      </trkpt>
      <trkpt lat="44.66039" lon="4.38125">
        <ele>432.670098</ele>
        <time>2022-04-05T10:53:37.740Z</time>
      </trkpt>
      <trkpt lat="44.66093" lon="4.3813">
        <ele>427.581663</ele>
        <time>2022-04-05T10:54:41.784Z</time>
      </trkpt>
      <trkpt lat="44.66139" lon="4.3813">
        <ele>423.329292</ele>
        <time>2022-04-05T10:55:35.479Z</time>
      </trkpt>
      <trkpt lat="44.66139" lon="4.3813">
        <ele>423.329292</ele>
        <time>2022-04-05T10:55:36.542Z</time>
      </trkpt>
      <trkpt lat="44.66164" lon="4.38137">
        <ele>420.958666</ele>
        <time>2022-04-05T10:56:09.733Z</time>
      </trkpt>
      <trkpt lat="44.66207" lon="4.38161">
        <ele>414.907206</ele>
        <time>2022-04-05T10:57:07.054Z</time>
      </trkpt>
      <trkpt lat="44.66237" lon="4.3816">
        <ele>410.710825</ele>
        <time>2022-04-05T10:57:45.347Z</time>
      </trkpt>
      <trkpt lat="44.66267" lon="4.38181">
        <ele>406.152823</ele>
        <time>2022-04-05T10:58:24.837Z</time>
      </trkpt>
      <trkpt lat="44.66276" lon="4.3818">
        <ele>404.881071</ele>
        <time>2022-04-05T10:58:36.075Z</time>
      </trkpt>
      <trkpt lat="44.66271" lon="4.38188">
        <ele>403.835529</ele>
        <time>2022-04-05T10:58:49.421Z</time>
      </trkpt>
      <trkpt lat="44.66256" lon="4.38185">
        <ele>401.772927</ele>
        <time>2022-04-05T10:59:06.413Z</time>
      </trkpt>
      <trkpt lat="44.6624" lon="4.38194">
        <ele>399.311517</ele>
        <time>2022-04-05T10:59:29.997Z</time>
      </trkpt>
      <trkpt lat="44.66262" lon="4.38218">
        <ele>395.463751</ele>
        <time>2022-04-05T11:00:05.908Z</time>
      </trkpt>
      <trkpt lat="44.66278" lon="4.38222">
        <ele>392.357406</ele>
        <time>2022-04-05T11:00:32.658Z</time>
      </trkpt>
      <trkpt lat="44.66297" lon="4.38217">
        <ele>388.815173</ele>
        <time>2022-04-05T11:00:57.543Z</time>
      </trkpt>
      <trkpt lat="44.6631" lon="4.38222">
        <ele>386.387983</ele>
        <time>2022-04-05T11:01:20.044Z</time>
      </trkpt>
      <trkpt lat="44.6632" lon="4.38236">
        <ele>383.799548</ele>
        <time>2022-04-05T11:01:37.723Z</time>
      </trkpt>
      <trkpt lat="44.66342" lon="4.38289">
        <ele>375.715816</ele>
        <time>2022-04-05T11:02:39.642Z</time>
      </trkpt>
      <trkpt lat="44.66354" lon="4.38342">
        <ele>368.496544</ele>
        <time>2022-04-05T11:03:31.323Z</time>
      </trkpt>
      <trkpt lat="44.66392" lon="4.38371">
        <ele>360.368061</ele>
        <time>2022-04-05T11:04:31.929Z</time>
      </trkpt>
      <trkpt lat="44.66444" lon="4.38398">
        <ele>348.907252</ele>
        <time>2022-04-05T11:05:59.371Z</time>
      </trkpt>
      <trkpt lat="44.66455" lon="4.3841">
        <ele>346.026282</ele>
        <time>2022-04-05T11:06:23.275Z</time>
      </trkpt>
      <trkpt lat="44.66471" lon="4.38447">
        <ele>339.800111</ele>
        <time>2022-04-05T11:07:11.994Z</time>
      </trkpt>
      <trkpt lat="44.66469" lon="4.38546">
        <ele>325.602047</ele>
        <time>2022-04-05T11:08:48.590Z</time>
      </trkpt>
      <trkpt lat="44.66464" lon="4.38635">
        <ele>318.065597</ele>
        <time>2022-04-05T11:10:33.574Z</time>
      </trkpt>
      <trkpt lat="44.66446" lon="4.38684">
        <ele>313.431667</ele>
        <time>2022-04-05T11:11:35.654Z</time>
      </trkpt>
      <trkpt lat="44.6645" lon="4.3871">
        <ele>311.184106</ele>
        <time>2022-04-05T11:12:04.696Z</time>
      </trkpt>
      <trkpt lat="44.66445" lon="4.38712">
        <ele>310.641136</ele>
        <time>2022-04-05T11:12:11.767Z</time>
      </trkpt>
      <trkpt lat="44.66434" lon="4.38703">
        <ele>309.041078</ele>
        <time>2022-04-05T11:12:31.629Z</time>
      </trkpt>
      <trkpt lat="44.6644" lon="4.38736">
        <ele>306.16647</ele>
        <time>2022-04-05T11:13:05.177Z</time>
      </trkpt>
      <trkpt lat="44.66426" lon="4.38732">
        <ele>304.592859</ele>
        <time>2022-04-05T11:13:23.828Z</time>
      </trkpt>
      <trkpt lat="44.6643" lon="4.38763">
        <ele>304.576864</ele>
        <time>2022-04-05T11:13:53.704Z</time>
      </trkpt>
      <trkpt lat="44.66421" lon="4.38763">
        <ele>304.570958</ele>
        <time>2022-04-05T11:14:04.465Z</time>
      </trkpt>
      <trkpt lat="44.66412" lon="4.38773">
        <ele>304.562811</ele>
        <time>2022-04-05T11:14:19.347Z</time>
      </trkpt>
      <trkpt lat="44.66408" lon="4.38806">
        <ele>304.546006</ele>
        <time>2022-04-05T11:14:52.806Z</time>
      </trkpt>
      <trkpt lat="44.66389" lon="4.38823">
        <ele>304.530288</ele>
        <time>2022-04-05T11:15:22.313Z</time>
      </trkpt>
      <trkpt lat="44.6639" lon="4.38829">
        <ele>304.527449</ele>
        <time>2022-04-05T11:15:27.814Z</time>
      </trkpt>
      <trkpt lat="44.66383" lon="4.38831">
        <ele>304.522326</ele>
        <time>2022-04-05T11:15:37.715Z</time>
      </trkpt>
      <trkpt lat="44.66365" lon="4.38858">
        <ele>304.503924</ele>
        <time>2022-04-05T11:16:12.197Z</time>
      </trkpt>
      <trkpt lat="44.66353" lon="4.38866">
        <ele>304.494479</ele>
        <time>2022-04-05T11:16:27.011Z</time>
      </trkpt>
      <trkpt lat="44.66339" lon="4.38871">
        <ele>304.484106</ele>
        <time>2022-04-05T11:16:42.158Z</time>
      </trkpt>
      <trkpt lat="44.66332" lon="4.38863">
        <ele>304.478232</ele>
        <time>2022-04-05T11:16:51.136Z</time>
      </trkpt>
      <trkpt lat="44.66337" lon="4.38778">
        <ele>302.994744</ele>
        <time>2022-04-05T11:17:53.150Z</time>
      </trkpt>
      <trkpt lat="44.66331" lon="4.38739">
        <ele>302.07079</ele>
        <time>2022-04-05T11:18:22.012Z</time>
      </trkpt>
      <trkpt lat="44.66317" lon="4.38718">
        <ele>301.387745</ele>
        <time>2022-04-05T11:18:43.966Z</time>
      </trkpt>
      <trkpt lat="44.66298" lon="4.38708">
        <ele>300.725281</ele>
        <time>2022-04-05T11:19:06.536Z</time>
      </trkpt>
      <trkpt lat="44.6627" lon="4.3866">
        <ele>299.281392</ele>
        <time>2022-04-05T11:19:55.743Z</time>
      </trkpt>
      <trkpt lat="44.66247" lon="4.38641">
        <ele>298.251006</ele>
        <time>2022-04-05T11:20:26.176Z</time>
      </trkpt>
      <trkpt lat="44.66225" lon="4.38645">
        <ele>297.035051</ele>
        <time>2022-04-05T11:20:50.080Z</time>
      </trkpt>
      <trkpt lat="44.662" lon="4.3866">
        <ele>295.488698</ele>
        <time>2022-04-05T11:21:21.094Z</time>
      </trkpt>
      <trkpt lat="44.66182" lon="4.38684">
        <ele>294.08547</ele>
        <time>2022-04-05T11:21:49.134Z</time>
      </trkpt>
      <trkpt lat="44.66173" lon="4.38711">
        <ele>292.908376</ele>
        <time>2022-04-05T11:22:13.033Z</time>
      </trkpt>
      <trkpt lat="44.66164" lon="4.38817">
        <ele>288.611039</ele>
        <time>2022-04-05T11:23:37.246Z</time>
      </trkpt>
      <trkpt lat="44.66158" lon="4.38826">
        <ele>288.227668</ele>
        <time>2022-04-05T11:23:46.451Z</time>
      </trkpt>
      <trkpt lat="44.66168" lon="4.38852">
        <ele>287.512181</ele>
        <time>2022-04-05T11:24:09.674Z</time>
      </trkpt>
      <trkpt lat="44.66139" lon="4.38868">
        <ele>286.465478</ele>
        <time>2022-04-05T11:24:42.377Z</time>
      </trkpt>
      <trkpt lat="44.66121" lon="4.389">
        <ele>285.473696</ele>
        <time>2022-04-05T11:25:13.143Z</time>
      </trkpt>
      <trkpt lat="44.66111" lon="4.38941">
        <ele>284.424066</ele>
        <time>2022-04-05T11:25:45.692Z</time>
      </trkpt>
      <trkpt lat="44.66115" lon="4.38969">
        <ele>283.730832</ele>
        <time>2022-04-05T11:26:07.565Z</time>
      </trkpt>
      <trkpt lat="44.66105" lon="4.3898">
        <ele>283.302822</ele>
        <time>2022-04-05T11:26:20.410Z</time>
      </trkpt>
      <trkpt lat="44.66094" lon="4.39017">
        <ele>282.318807</ele>
        <time>2022-04-05T11:26:51.676Z</time>
      </trkpt>
      <trkpt lat="44.66089" lon="4.39101">
        <ele>282.709315</ele>
        <time>2022-04-05T11:27:53.244Z</time>
      </trkpt>
      <trkpt lat="44.66103" lon="4.39157">
        <ele>283.06353</ele>
        <time>2022-04-05T11:28:35.960Z</time>
      </trkpt>
      <trkpt lat="44.66099" lon="4.39163">
        <ele>283.107937</ele>
        <time>2022-04-05T11:28:41.456Z</time>
      </trkpt>
      <trkpt lat="44.66085" lon="4.39159">
        <ele>283.233447</ele>
        <time>2022-04-05T11:28:57.375Z</time>
      </trkpt>
      <trkpt lat="44.6606" lon="4.39184">
        <ele>283.488007</ele>
        <time>2022-04-05T11:29:29.731Z</time>
      </trkpt>
      <trkpt lat="44.66043" lon="4.39201">
        <ele>283.665819</ele>
        <time>2022-04-05T11:29:53.250Z</time>
      </trkpt>
      <trkpt lat="44.65977" lon="4.3932">
        <ele>292.505407</ele>
        <time>2022-04-05T11:32:03.397Z</time>
      </trkpt>
      <trkpt lat="44.65958" lon="4.39366">
        <ele>295.814202</ele>
        <time>2022-04-05T11:32:54.991Z</time>
      </trkpt>
      <trkpt lat="44.65969" lon="4.39379">
        <ele>297.090695</ele>
        <time>2022-04-05T11:33:15.292Z</time>
      </trkpt>
      <trkpt lat="44.65954" lon="4.39406">
        <ele>299.309588</ele>
        <time>2022-04-05T11:33:57.261Z</time>
      </trkpt>
      <trkpt lat="44.65961" lon="4.3941">
        <ele>300.207082</ele>
        <time>2022-04-05T11:34:07.508Z</time>
      </trkpt>
      <trkpt lat="44.65952" lon="4.39424">
        <ele>302.163714</ele>
        <time>2022-04-05T11:34:31.401Z</time>
      </trkpt>
      <trkpt lat="44.65965" lon="4.39423">
        <ele>304.035436</ele>
        <time>2022-04-05T11:34:53.289Z</time>
      </trkpt>
      <trkpt lat="44.65953" lon="4.39443">
        <ele>306.636262</ele>
        <time>2022-04-05T11:35:18.784Z</time>
      </trkpt>
      <trkpt lat="44.65956" lon="4.39447">
        <ele>307.288947</ele>
        <time>2022-04-05T11:35:28.096Z</time>
      </trkpt>
      <trkpt lat="44.65979" lon="4.39446">
        <ele>310.540638</ele>
        <time>2022-04-05T11:36:01.282Z</time>
      </trkpt>
      <trkpt lat="44.65986" lon="4.39453">
        <ele>311.882087</ele>
        <time>2022-04-05T11:36:16.689Z</time>
      </trkpt>
      <trkpt lat="44.65962" lon="4.39467">
        <ele>315.730156</ele>
        <time>2022-04-05T11:37:03.026Z</time>
      </trkpt>
      <trkpt lat="44.65982" lon="4.39477">
        <ele>318.829979</ele>
        <time>2022-04-05T11:37:42.270Z</time>
      </trkpt>
      <trkpt lat="44.65971" lon="4.39485">
        <ele>320.64766</ele>
        <time>2022-04-05T11:37:59.556Z</time>
      </trkpt>
      <trkpt lat="44.66028" lon="4.39502">
        <ele>327.871655</ele>
        <time>2022-04-05T11:39:34.627Z</time>
      </trkpt>
      <trkpt lat="44.6605" lon="4.39517">
        <ele>330.192712</ele>
        <time>2022-04-05T11:40:09.489Z</time>
      </trkpt>
      <trkpt lat="44.6608" lon="4.39521">
        <ele>332.954516</ele>
        <time>2022-04-05T11:40:47.194Z</time>
      </trkpt>
      <trkpt lat="44.66068" lon="4.39529">
        <ele>334.15541</ele>
        <time>2022-04-05T11:41:04.077Z</time>
      </trkpt>
      <trkpt lat="44.66079" lon="4.39537">
        <ele>335.224781</ele>
        <time>2022-04-05T11:41:21.524Z</time>
      </trkpt>
      <trkpt lat="44.66058" lon="4.39543">
        <ele>337.210147</ele>
        <time>2022-04-05T11:41:44.560Z</time>
      </trkpt>
      <trkpt lat="44.66053" lon="4.39551">
        <ele>337.86451</ele>
        <time>2022-04-05T11:41:54.635Z</time>
      </trkpt>
      <trkpt lat="44.66088" lon="4.39553">
        <ele>341.105234</ele>
        <time>2022-04-05T11:42:36.769Z</time>
      </trkpt>
      <trkpt lat="44.66083" lon="4.39562">
        <ele>341.877507</ele>
        <time>2022-04-05T11:42:47.932Z</time>
      </trkpt>
      <trkpt lat="44.66051" lon="4.39575">
        <ele>344.835191</ele>
        <time>2022-04-05T11:43:27.888Z</time>
      </trkpt>
      <trkpt lat="44.66082" lon="4.39583">
        <ele>347.562313</ele>
        <time>2022-04-05T11:44:09.925Z</time>
      </trkpt>
      <trkpt lat="44.66057" lon="4.39595">
        <ele>349.841103</ele>
        <time>2022-04-05T11:44:44.705Z</time>
      </trkpt>
      <trkpt lat="44.66079" lon="4.39606">
        <ele>351.880146</ele>
        <time>2022-04-05T11:45:15.459Z</time>
      </trkpt>
      <trkpt lat="44.66095" lon="4.39632">
        <ele>353.95308</ele>
        <time>2022-04-05T11:45:45.981Z</time>
      </trkpt>
      <trkpt lat="44.66095" lon="4.39632">
        <ele>353.95308</ele>
        <time>2022-04-05T11:45:46.173Z</time>
      </trkpt>
      <trkpt lat="44.66073" lon="4.39667">
        <ele>356.855785</ele>
        <time>2022-04-05T11:46:27.685Z</time>
      </trkpt>
      <trkpt lat="44.66057" lon="4.39706">
        <ele>360.307308</ele>
        <time>2022-04-05T11:47:12.777Z</time>
      </trkpt>
      <trkpt lat="44.6605" lon="4.39704">
        <ele>361.154743</ele>
        <time>2022-04-05T11:47:20.495Z</time>
      </trkpt>
      <trkpt lat="44.66018" lon="4.39717">
        <ele>365.196866</ele>
        <time>2022-04-05T11:48:10.327Z</time>
      </trkpt>
      <trkpt lat="44.65984" lon="4.39769">
        <ele>371.308747</ele>
        <time>2022-04-05T11:49:31.470Z</time>
      </trkpt>
      <trkpt lat="44.65954" lon="4.39796">
        <ele>375.714587</ele>
        <time>2022-04-05T11:50:29.893Z</time>
      </trkpt>
      <trkpt lat="44.65912" lon="4.39882">
        <ele>383.231242</ele>
        <time>2022-04-05T11:52:09.465Z</time>
      </trkpt>
      <trkpt lat="44.65862" lon="4.39895">
        <ele>387.472245</ele>
        <time>2022-04-05T11:53:15.138Z</time>
      </trkpt>
      <trkpt lat="44.65845" lon="4.39923">
        <ele>389.664168</ele>
        <time>2022-04-05T11:53:50.570Z</time>
      </trkpt>
      <trkpt lat="44.65838" lon="4.39926">
        <ele>390.333013</ele>
        <time>2022-04-05T11:54:00.602Z</time>
      </trkpt>
      <trkpt lat="44.65823" lon="4.39918">
        <ele>391.665815</ele>
        <time>2022-04-05T11:54:23.051Z</time>
      </trkpt>
      <trkpt lat="44.65742" lon="4.4012">
        <ele>398.16349</ele>
        <time>2022-04-05T11:57:27.428Z</time>
      </trkpt>
      <trkpt lat="44.65739" lon="4.40157">
        <ele>398.823687</ele>
        <time>2022-04-05T11:57:54.339Z</time>
      </trkpt>
      <trkpt lat="44.65719" lon="4.40153">
        <ele>399.315133</ele>
        <time>2022-04-05T11:58:14.273Z</time>
      </trkpt>
      <trkpt lat="44.65703" lon="4.40191">
        <ele>399.196013</ele>
        <time>2022-04-05T11:58:46.350Z</time>
      </trkpt>
      <trkpt lat="44.6568" lon="4.4017">
        <ele>398.760969</ele>
        <time>2022-04-05T11:59:14.168Z</time>
      </trkpt>
      <trkpt lat="44.65657" lon="4.40134">
        <ele>398.219224</ele>
        <time>2022-04-05T11:59:49.247Z</time>
      </trkpt>
      <trkpt lat="44.65622" lon="4.40095">
        <ele>397.506427</ele>
        <time>2022-04-05T12:00:36.161Z</time>
      </trkpt>
      <trkpt lat="44.65519" lon="4.39993">
        <ele>394.290342</ele>
        <time>2022-04-05T12:02:49.116Z</time>
      </trkpt>
      <trkpt lat="44.65434" lon="4.39933">
        <ele>391.224995</ele>
        <time>2022-04-05T12:04:31.413Z</time>
      </trkpt>
      <trkpt lat="44.65397" lon="4.39879">
        <ele>389.406012</ele>
        <time>2022-04-05T12:05:28.613Z</time>
      </trkpt>
      <trkpt lat="44.65375" lon="4.39854">
        <ele>388.407698</ele>
        <time>2022-04-05T12:05:59.739Z</time>
      </trkpt>
      <trkpt lat="44.65346" lon="4.39822">
        <ele>387.131921</ele>
        <time>2022-04-05T12:06:39.217Z</time>
      </trkpt>
      <trkpt lat="44.65295" lon="4.39798">
        <ele>385.266702</ele>
        <time>2022-04-05T12:07:36.271Z</time>
      </trkpt>
      <trkpt lat="44.65251" lon="4.39773">
        <ele>384.092852</ele>
        <time>2022-04-05T12:08:26.884Z</time>
      </trkpt>
      <trkpt lat="44.65211" lon="4.3974">
        <ele>383.251535</ele>
        <time>2022-04-05T12:09:14.682Z</time>
      </trkpt>
      <trkpt lat="44.65158" lon="4.39713">
        <ele>382.208298</ele>
        <time>2022-04-05T12:10:13.823Z</time>
      </trkpt>
      <trkpt lat="44.65113" lon="4.39699">
        <ele>381.370527</ele>
        <time>2022-04-05T12:11:00.975Z</time>
      </trkpt>
      <trkpt lat="44.65115" lon="4.39672">
        <ele>380.735782</ele>
        <time>2022-04-05T12:11:20.220Z</time>
      </trkpt>
      <trkpt lat="44.65128" lon="4.39639">
        <ele>379.839664</ele>
        <time>2022-04-05T12:11:47.437Z</time>
      </trkpt>
      <trkpt lat="44.65047" lon="4.39485">
        <ele>375.169362</ele>
        <time>2022-04-05T12:14:14.127Z</time>
      </trkpt>
      <trkpt lat="44.65029" lon="4.3949">
        <ele>373.604196</ele>
        <time>2022-04-05T12:14:34.548Z</time>
      </trkpt>
      <trkpt lat="44.64984" lon="4.3946">
        <ele>369.304143</ele>
        <time>2022-04-05T12:15:31.550Z</time>
      </trkpt>
      <trkpt lat="44.64984" lon="4.3946">
        <ele>369.304143</ele>
        <time>2022-04-05T12:15:31.924Z</time>
      </trkpt>
      <trkpt lat="44.64984" lon="4.3946">
        <ele>369.304143</ele>
        <time>2022-04-05T12:15:31.924Z</time>
      </trkpt>
      <trkpt lat="44.64995" lon="4.39429">
        <ele>367.241487</ele>
        <time>2022-04-05T12:15:55.855Z</time>
      </trkpt>
      <trkpt lat="44.64975" lon="4.39426">
        <ele>365.466873</ele>
        <time>2022-04-05T12:16:16.488Z</time>
      </trkpt>
      <trkpt lat="44.6495" lon="4.39419">
        <ele>363.288512</ele>
        <time>2022-04-05T12:16:41.784Z</time>
      </trkpt>
      <trkpt lat="44.6493" lon="4.39417">
        <ele>361.53904</ele>
        <time>2022-04-05T12:17:02.140Z</time>
      </trkpt>
      <trkpt lat="44.64931" lon="4.394">
        <ele>360.470351</ele>
        <time>2022-04-05T12:17:14.557Z</time>
      </trkpt>
      <trkpt lat="44.64879" lon="4.39405">
        <ele>356.136188</ele>
        <time>2022-04-05T12:18:07.275Z</time>
      </trkpt>
      <trkpt lat="44.64888" lon="4.39388">
        <ele>354.896311</ele>
        <time>2022-04-05T12:18:22.469Z</time>
      </trkpt>
      <trkpt lat="44.64888" lon="4.39388">
        <ele>354.896311</ele>
        <time>2022-04-05T12:18:22.514Z</time>
      </trkpt>
      <trkpt lat="44.64888" lon="4.39388">
        <ele>354.896311</ele>
        <time>2022-04-05T12:18:23.073Z</time>
      </trkpt>
      <trkpt lat="44.64844" lon="4.3938">
        <ele>351.30094</ele>
        <time>2022-04-05T12:19:14.579Z</time>
      </trkpt>
      <trkpt lat="44.64733" lon="4.39356">
        <ele>343.179331</ele>
        <time>2022-04-05T12:21:20.962Z</time>
      </trkpt>
      <trkpt lat="44.64699" lon="4.39372">
        <ele>341.297701</ele>
        <time>2022-04-05T12:22:00.453Z</time>
      </trkpt>
      <trkpt lat="44.64685" lon="4.39371">
        <ele>340.578294</ele>
        <time>2022-04-05T12:22:15.234Z</time>
      </trkpt>
      <trkpt lat="44.64635" lon="4.3935">
        <ele>337.898035</ele>
        <time>2022-04-05T12:23:10.431Z</time>
      </trkpt>
      <trkpt lat="44.64602" lon="4.39331">
        <ele>336.036686</ele>
        <time>2022-04-05T12:23:50.674Z</time>
      </trkpt>
      <trkpt lat="44.64578" lon="4.39304">
        <ele>333.157121</ele>
        <time>2022-04-05T12:24:26.047Z</time>
      </trkpt>
      <trkpt lat="44.64565" lon="4.39306">
        <ele>331.796013</ele>
        <time>2022-04-05T12:24:41.167Z</time>
      </trkpt>
      <trkpt lat="44.64548" lon="4.39296">
        <ele>329.881051</ele>
        <time>2022-04-05T12:25:02.946Z</time>
      </trkpt>
      <trkpt lat="44.64536" lon="4.39282">
        <ele>328.200729</ele>
        <time>2022-04-05T12:25:22.073Z</time>
      </trkpt>
      <trkpt lat="44.64525" lon="4.39226">
        <ele>323.866083</ele>
        <time>2022-04-05T12:26:11.507Z</time>
      </trkpt>
      <trkpt lat="44.64524" lon="4.39185">
        <ele>320.799831</ele>
        <time>2022-04-05T12:26:47.918Z</time>
      </trkpt>
      <trkpt lat="44.64513" lon="4.39121">
        <ele>315.514947</ele>
        <time>2022-04-05T12:27:46.875Z</time>
      </trkpt>
      <trkpt lat="44.64494" lon="4.39069">
        <ele>309.804834</ele>
        <time>2022-04-05T12:28:39.259Z</time>
      </trkpt>
      <trkpt lat="44.64477" lon="4.3905">
        <ele>306.826428</ele>
        <time>2022-04-05T12:29:07.265Z</time>
      </trkpt>
      <trkpt lat="44.64477" lon="4.3905">
        <ele>306.826428</ele>
        <time>2022-04-05T12:29:07.455Z</time>
      </trkpt>
      <trkpt lat="44.64477" lon="4.3905">
        <ele>306.826428</ele>
        <time>2022-04-05T12:29:07.455Z</time>
      </trkpt>
      <trkpt lat="44.64413" lon="4.39049">
        <ele>298.009147</ele>
        <time>2022-04-05T12:30:12.010Z</time>
      </trkpt>
      <trkpt lat="44.64349" lon="4.39048">
        <ele>289.826765</ele>
        <time>2022-04-05T12:31:16.149Z</time>
      </trkpt>
      <trkpt lat="44.64349" lon="4.39047">
        <ele>289.705186</ele>
        <time>2022-04-05T12:31:17.745Z</time>
      </trkpt>
      <trkpt lat="44.64332" lon="4.3903">
        <ele>287.514143</ele>
        <time>2022-04-05T12:31:42.906Z</time>
      </trkpt>
      <trkpt lat="44.64325" lon="4.39024">
        <ele>286.733522</ele>
        <time>2022-04-05T12:31:51.649Z</time>
      </trkpt>
      <trkpt lat="44.64297" lon="4.39013">
        <ele>283.601496</ele>
        <time>2022-04-05T12:32:28.161Z</time>
      </trkpt>
      <trkpt lat="44.64282" lon="4.39016">
        <ele>282.046665</ele>
        <time>2022-04-05T12:32:46.336Z</time>
      </trkpt>
      <trkpt lat="44.64262" lon="4.38985">
        <ele>278.953977</ele>
        <time>2022-04-05T12:33:22.405Z</time>
      </trkpt>
      <trkpt lat="44.64245" lon="4.39022">
        <ele>275.657452</ele>
        <time>2022-04-05T12:34:00.572Z</time>
      </trkpt>
      <trkpt lat="44.64238" lon="4.39026">
        <ele>274.818163</ele>
        <time>2022-04-05T12:34:10.027Z</time>
      </trkpt>
      <trkpt lat="44.64184" lon="4.39019">
        <ele>271.356808</ele>
        <time>2022-04-05T12:35:13.209Z</time>
      </trkpt>
      <trkpt lat="44.6415" lon="4.39031">
        <ele>269.817752</ele>
        <time>2022-04-05T12:35:50.783Z</time>
      </trkpt>
      <trkpt lat="44.64137" lon="4.39011">
        <ele>268.979537</ele>
        <time>2022-04-05T12:36:10.863Z</time>
      </trkpt>
      <trkpt lat="44.64134" lon="4.38985">
        <ele>268.134781</ele>
        <time>2022-04-05T12:36:31.001Z</time>
      </trkpt>
      <trkpt lat="44.64137" lon="4.38968">
        <ele>267.601053</ele>
        <time>2022-04-05T12:36:44.016Z</time>
      </trkpt>
      <trkpt lat="44.64137" lon="4.38968">
        <ele>267.601053</ele>
        <time>2022-04-05T12:36:44.065Z</time>
      </trkpt>
      <trkpt lat="44.64148" lon="4.38944">
        <ele>266.676147</ele>
        <time>2022-04-05T12:37:06.316Z</time>
      </trkpt>
      <trkpt lat="44.64153" lon="4.3891">
        <ele>265.593883</ele>
        <time>2022-04-05T12:37:32.456Z</time>
      </trkpt>
      <trkpt lat="44.64142" lon="4.38881">
        <ele>264.839362</ele>
        <time>2022-04-05T12:37:56.918Z</time>
      </trkpt>
      <trkpt lat="44.64133" lon="4.38876">
        <ele>264.645701</ele>
        <time>2022-04-05T12:38:07.055Z</time>
      </trkpt>
      <trkpt lat="44.64114" lon="4.38884">
        <ele>264.237214</ele>
        <time>2022-04-05T12:38:28.150Z</time>
      </trkpt>
      <trkpt lat="44.64133" lon="4.38889">
        <ele>263.848894</ele>
        <time>2022-04-05T12:38:47.708Z</time>
      </trkpt>
      <trkpt lat="44.64114" lon="4.38884">
        <ele>263.460573</ele>
        <time>2022-04-05T12:39:07.015Z</time>
      </trkpt>
      <trkpt lat="44.64133" lon="4.38876">
        <ele>263.052086</ele>
        <time>2022-04-05T12:39:27.479Z</time>
      </trkpt>
      <trkpt lat="44.64142" lon="4.38881">
        <ele>262.858426</ele>
        <time>2022-04-05T12:39:37.284Z</time>
      </trkpt>
      <trkpt lat="44.64153" lon="4.3891">
        <ele>262.400514</ele>
        <time>2022-04-05T12:40:00.142Z</time>
      </trkpt>
      <trkpt lat="44.64148" lon="4.38944">
        <ele>261.904058</ele>
        <time>2022-04-05T12:40:26.889Z</time>
      </trkpt>
      <trkpt lat="44.6416" lon="4.38931">
        <ele>261.605865</ele>
        <time>2022-04-05T12:40:42.223Z</time>
      </trkpt>
      <trkpt lat="44.64165" lon="4.38933">
        <ele>261.487145</ele>
        <time>2022-04-05T12:40:48.476Z</time>
      </trkpt>
      <trkpt lat="44.64169" lon="4.38929">
        <ele>261.377922</ele>
        <time>2022-04-05T12:40:53.736Z</time>
      </trkpt>
      <trkpt lat="44.64179" lon="4.38884">
        <ele>260.148426</ele>
        <time>2022-04-05T12:41:30.114Z</time>
      </trkpt>
      <trkpt lat="44.64172" lon="4.38853">
        <ele>259.293205</ele>
        <time>2022-04-05T12:41:55.817Z</time>
      </trkpt>
      <trkpt lat="44.64175" lon="4.38853">
        <ele>259.174723</ele>
        <time>2022-04-05T12:41:59.362Z</time>
      </trkpt>
      <trkpt lat="44.64179" lon="4.38857">
        <ele>258.975157</ele>
        <time>2022-04-05T12:42:05.136Z</time>
      </trkpt>
      <trkpt lat="44.6419" lon="4.38855">
        <ele>258.593921</ele>
        <time>2022-04-05T12:42:17.048Z</time>
      </trkpt>
      <trkpt lat="44.64207" lon="4.38863">
        <ele>257.918779</ele>
        <time>2022-04-05T12:42:36.481Z</time>
      </trkpt>
      <trkpt lat="44.64202" lon="4.38819">
        <ele>256.751842</ele>
        <time>2022-04-05T12:43:09.597Z</time>
      </trkpt>
      <trkpt lat="44.64227" lon="4.38827">
        <ele>255.832803</ele>
        <time>2022-04-05T12:43:35.647Z</time>
      </trkpt>
      <trkpt lat="44.64263" lon="4.38822">
        <ele>254.374343</ele>
        <time>2022-04-05T12:44:13.340Z</time>
      </trkpt>
      <trkpt lat="44.64299" lon="4.38813">
        <ele>252.531949</ele>
        <time>2022-04-05T12:44:54.633Z</time>
      </trkpt>
      <trkpt lat="44.64341" lon="4.38818">
        <ele>250.416181</ele>
        <time>2022-04-05T12:45:43.487Z</time>
      </trkpt>
      <trkpt lat="44.64341" lon="4.38818">
        <ele>250.416181</ele>
        <time>2022-04-05T12:45:45.970Z</time>
      </trkpt>
      <trkpt lat="44.64394" lon="4.38841">
        <ele>247.65985</ele>
        <time>2022-04-05T12:46:48.288Z</time>
      </trkpt>
      <trkpt lat="44.64402" lon="4.38836">
        <ele>247.209026</ele>
        <time>2022-04-05T12:46:57.836Z</time>
      </trkpt>
      <trkpt lat="44.64415" lon="4.38809">
        <ele>246.042201</ele>
        <time>2022-04-05T12:47:22.638Z</time>
      </trkpt>
      <trkpt lat="44.64415" lon="4.38809">
        <ele>246.042201</ele>
        <time>2022-04-05T12:47:23.661Z</time>
      </trkpt>
      <trkpt lat="44.64412" lon="4.38772">
        <ele>245.746633</ele>
        <time>2022-04-05T12:47:50.639Z</time>
      </trkpt>
      <trkpt lat="44.64418" lon="4.38755">
        <ele>245.746633</ele>
        <time>2022-04-05T12:48:06.725Z</time>
      </trkpt>
      <trkpt lat="44.64425" lon="4.38732">
        <ele>245.746633</ele>
        <time>2022-04-05T12:48:24.549Z</time>
      </trkpt>
      <trkpt lat="44.64452" lon="4.38654">
        <ele>245.746633</ele>
        <time>2022-04-05T12:49:34.271Z</time>
      </trkpt>
      <trkpt lat="44.64452" lon="4.38654">
        <ele>245.746633</ele>
        <time>2022-04-05T12:49:35.259Z</time>
      </trkpt>
      <trkpt lat="44.64473" lon="4.38669">
        <ele>245.746633</ele>
        <time>2022-04-05T12:50:02.531Z</time>
      </trkpt>
      <trkpt lat="44.64494" lon="4.38681">
        <ele>245.746633</ele>
        <time>2022-04-05T12:50:27.289Z</time>
      </trkpt>
      <trkpt lat="44.64492" lon="4.38692">
        <ele>245.746633</ele>
        <time>2022-04-05T12:50:35.921Z</time>
      </trkpt>
      <trkpt lat="44.64484" lon="4.38727">
        <ele>245.746633</ele>
        <time>2022-04-05T12:51:03.082Z</time>
      </trkpt>
      <trkpt lat="44.64475" lon="4.38747">
        <ele>245.746633</ele>
        <time>2022-04-05T12:51:19.300Z</time>
      </trkpt>
    </trkseg>
  </trk>
</gpx>